createdAt,value
2018-12-11T00:00:33.547Z,5.17
2018-12-11T00:03:02.222Z,5.17
2018-12-11T00:05:31.367Z,5.18
2018-12-11T00:08:00.237Z,5.24
2018-12-11T00:10:29.111Z,5.20
2018-12-11T00:12:58.113Z,5.17
2018-12-11T00:15:27.104Z,5.17
2018-12-11T00:17:55.975Z,5.16
2018-12-11T00:20:25.031Z,5.15
2018-12-11T00:22:54.368Z,5.11
2018-12-11T00:25:23.175Z,5.06
2018-12-11T00:27:51.856Z,5.09
2018-12-11T00:30:20.913Z,5.10
2018-12-11T00:32:49.901Z,5.11
2018-12-11T00:35:18.927Z,5.13
2018-12-11T00:37:47.980Z,5.10
2018-12-11T00:40:17.042Z,5.08
2018-12-11T00:42:45.916Z,5.11
2018-12-11T00:45:14.928Z,5.13
2018-12-11T00:47:43.821Z,5.12
2018-12-11T00:50:12.940Z,5.13
2018-12-11T00:52:41.938Z,5.16
2018-12-11T00:55:10.811Z,5.14
2018-12-11T00:57:39.967Z,5.18
2018-12-11T01:00:10.267Z,5.17
2018-12-11T01:02:39.425Z,5.15
2018-12-11T01:05:08.504Z,5.14
2018-12-11T01:07:37.508Z,5.06
2018-12-11T01:10:09.802Z,5.00
2018-12-11T01:12:38.957Z,4.95
2018-12-11T01:15:08.271Z,4.93
2018-12-11T01:17:37.226Z,4.87
2018-12-11T01:20:07.016Z,4.83
2018-12-11T01:22:35.659Z,4.81
2018-12-11T01:25:04.794Z,4.73
2018-12-11T01:27:33.657Z,4.74
2018-12-11T01:30:02.851Z,4.69
2018-12-11T01:32:32.050Z,4.64
2018-12-11T01:35:01.205Z,4.62
2018-12-11T01:37:30.355Z,4.56
2018-12-11T01:39:59.508Z,4.58
2018-12-11T01:42:28.495Z,4.56
2018-12-11T01:44:57.319Z,4.62
2018-12-11T01:47:26.372Z,4.61
2018-12-11T01:49:55.172Z,4.62
2018-12-11T01:52:24.146Z,4.59
2018-12-11T01:54:52.912Z,4.55
2018-12-11T01:57:21.599Z,4.56
2018-12-11T01:59:50.576Z,4.56
2018-12-11T02:02:19.647Z,4.55
2018-12-11T02:04:48.786Z,4.54
2018-12-11T02:07:17.897Z,4.54
2018-12-11T02:09:46.784Z,4.54
2018-12-11T02:12:15.725Z,4.58
2018-12-11T02:14:44.784Z,4.57
2018-12-11T02:17:13.905Z,4.63
2018-12-11T02:19:42.845Z,4.65
2018-12-11T02:22:11.850Z,4.66
2018-12-11T02:24:40.786Z,4.66
2018-12-11T02:27:09.923Z,4.63
2018-12-11T02:29:38.648Z,4.61
2018-12-11T02:32:07.772Z,4.57
2018-12-11T02:34:36.618Z,4.55
2018-12-11T02:37:05.583Z,4.55
2018-12-11T02:39:34.516Z,4.51
2018-12-11T02:42:03.501Z,4.47
2018-12-11T02:44:32.607Z,4.38
2018-12-11T02:47:01.826Z,4.39
2018-12-11T02:49:30.864Z,4.37
2018-12-11T02:52:00.016Z,4.40
2018-12-11T02:54:28.966Z,4.39
2018-12-11T02:56:58.014Z,4.35
2018-12-11T02:59:26.888Z,4.35
2018-12-11T03:01:55.870Z,4.29
2018-12-11T03:04:24.745Z,4.37
2018-12-11T03:06:53.440Z,4.37
2018-12-11T03:09:22.503Z,4.31
2018-12-11T03:11:51.496Z,4.37
2018-12-11T03:14:20.525Z,4.37
2018-12-11T03:16:49.733Z,4.27
2018-12-11T03:19:18.933Z,4.32
2018-12-11T03:21:47.933Z,4.36
2018-12-11T03:24:17.131Z,4.31
2018-12-11T03:26:46.305Z,4.29
2018-12-11T03:29:15.548Z,4.22
2018-12-11T03:31:44.619Z,4.24
2018-12-11T03:34:20.018Z,4.28
2018-12-11T03:36:49.009Z,4.30
2018-12-11T03:39:18.098Z,4.37
2018-12-11T03:41:47.130Z,4.34
2018-12-11T03:44:16.050Z,4.34
2018-12-11T03:46:44.943Z,4.39
2018-12-11T03:49:13.815Z,4.45
2018-12-11T03:51:42.664Z,4.45
2018-12-11T03:54:11.765Z,4.47
2018-12-11T03:56:40.938Z,4.45
2018-12-11T03:59:10.055Z,4.42
2018-12-11T04:01:38.977Z,4.38
2018-12-11T04:04:07.711Z,4.37
2018-12-11T04:06:36.371Z,4.40
2018-12-11T04:09:07.212Z,4.45
2018-12-11T04:11:36.303Z,4.42
2018-12-11T04:14:05.254Z,4.39
2018-12-11T04:16:34.129Z,4.41
2018-12-11T04:19:03.091Z,4.41
2018-12-11T04:21:32.237Z,4.41
2018-12-11T04:24:01.387Z,4.43
2018-12-11T04:26:30.220Z,4.37
2018-12-11T04:28:59.372Z,4.40
2018-12-11T04:31:28.277Z,4.37
2018-12-11T04:33:57.427Z,4.38
2018-12-11T04:36:26.549Z,4.32
2018-12-11T04:38:55.612Z,4.25
2018-12-11T04:41:24.395Z,4.15
2018-12-11T04:43:53.534Z,4.12
2018-12-11T04:46:22.519Z,4.08
2018-12-11T04:48:51.390Z,4.06
2018-12-11T04:51:20.320Z,4.03
2018-12-11T04:53:49.287Z,4.02
2018-12-11T04:56:18.328Z,3.96
2018-12-11T04:58:47.212Z,3.93
2018-12-11T05:01:16.097Z,3.96
2018-12-11T05:03:45.091Z,3.90
2018-12-11T05:06:14.188Z,3.93
2018-12-11T05:08:43.269Z,3.91
2018-12-11T05:11:12.244Z,3.94
2018-12-11T05:13:41.166Z,3.92
2018-12-11T05:16:10.120Z,3.90
2018-12-11T05:18:39.027Z,3.87
2018-12-11T05:21:08.208Z,3.86
2018-12-11T05:23:37.136Z,3.95
2018-12-11T05:26:06.200Z,3.99
2018-12-11T05:28:35.232Z,4.00
2018-12-11T05:31:04.258Z,4.00
2018-12-11T05:33:33.033Z,3.98
2018-12-11T05:36:01.928Z,4.00
2018-12-11T05:38:30.761Z,3.99
2018-12-11T05:40:59.882Z,3.95
2018-12-11T05:43:28.916Z,3.92
2018-12-11T05:45:57.713Z,3.99
2018-12-11T05:48:26.677Z,4.02
2018-12-11T05:50:55.769Z,4.00
2018-12-11T05:53:24.838Z,3.91
2018-12-11T05:55:53.933Z,3.99
2018-12-11T05:58:22.873Z,4.07
2018-12-11T06:00:51.688Z,4.02
2018-12-11T06:03:20.625Z,4.09
2018-12-11T06:05:49.704Z,4.08
2018-12-11T06:08:18.819Z,4.05
2018-12-11T06:10:47.712Z,3.98
2018-12-11T06:13:16.776Z,4.07
2018-12-11T06:15:45.818Z,4.14
2018-12-11T06:18:14.760Z,4.13
2018-12-11T06:20:43.798Z,4.08
2018-12-11T06:23:12.806Z,4.09
2018-12-11T06:25:41.725Z,4.05
2018-12-11T06:28:10.668Z,4.05
2018-12-11T06:30:39.600Z,4.03
2018-12-11T06:33:08.560Z,4.03
2018-12-11T06:35:37.592Z,4.07
2018-12-11T06:38:06.549Z,4.09
2018-12-11T06:40:35.560Z,4.10
2018-12-11T06:43:04.504Z,4.14
2018-12-11T06:45:33.492Z,4.16
2018-12-11T06:48:02.354Z,4.19
2018-12-11T06:50:31.163Z,4.15
2018-12-11T06:53:00.395Z,4.17
2018-12-11T06:55:29.598Z,4.20
2018-12-11T06:57:58.727Z,4.28
2018-12-11T07:00:27.873Z,4.35
2018-12-11T07:02:56.836Z,4.43
2018-12-11T07:05:25.878Z,4.51
2018-12-11T07:07:54.647Z,4.60
2018-12-11T07:10:23.629Z,4.71
2018-12-11T07:12:52.679Z,4.75
2018-12-11T07:15:21.707Z,4.74
2018-12-11T07:17:50.584Z,4.82
2018-12-11T07:20:19.237Z,4.83
2018-12-11T07:22:48.116Z,4.85
2018-12-11T07:25:17.014Z,4.83
2018-12-11T07:27:45.899Z,4.87
2018-12-11T07:30:15.040Z,4.90
2018-12-11T07:32:44.071Z,5.01
2018-12-11T07:35:13.141Z,5.03
2018-12-11T07:37:42.004Z,5.04
2018-12-11T07:40:10.946Z,5.20
2018-12-11T07:42:39.987Z,5.23
2018-12-11T07:45:08.904Z,5.23
2018-12-11T07:47:37.767Z,5.34
2018-12-11T07:50:06.654Z,5.45
2018-12-11T07:52:35.752Z,5.51
2018-12-11T07:55:04.898Z,5.62
2018-12-11T07:57:33.855Z,5.63
2018-12-11T08:00:03.026Z,5.65
2018-12-11T08:02:32.146Z,5.71
2018-12-11T08:05:01.197Z,5.76
2018-12-11T08:07:29.978Z,5.83
2018-12-11T08:09:58.905Z,5.95
2018-12-11T08:12:28.095Z,6.10
2018-12-11T08:14:57.388Z,6.15
2018-12-11T08:17:26.374Z,6.15
2018-12-11T08:19:55.542Z,6.29
2018-12-11T08:22:24.324Z,6.49
2018-12-11T08:24:53.497Z,6.64
2018-12-11T08:27:22.545Z,6.74
2018-12-11T08:29:51.584Z,6.95
2018-12-11T08:32:20.642Z,7.35
2018-12-11T08:34:49.861Z,7.86
2018-12-11T08:37:18.815Z,8.45
2018-12-11T08:39:47.786Z,8.91
2018-12-11T08:42:16.845Z,9.19
2018-12-11T08:44:51.188Z,9.64
2018-12-11T08:47:17.212Z,9.89
2018-12-11T08:49:45.993Z,9.83
2018-12-11T08:52:14.782Z,9.89
2018-12-11T08:54:43.893Z,10.35
2018-12-11T08:57:12.832Z,10.71
2018-12-11T08:59:41.551Z,10.71
2018-12-11T09:02:10.231Z,11.02
2018-12-11T09:04:39.105Z,11.37
2018-12-11T09:07:08.030Z,11.55
2018-12-11T09:09:36.961Z,11.96
2018-12-11T09:12:05.824Z,11.84
2018-12-11T09:14:34.745Z,11.70
2018-12-11T09:17:10.015Z,11.54
2018-12-11T09:19:34.687Z,11.57
2018-12-11T09:22:03.788Z,11.42
2018-12-11T09:24:32.903Z,11.34
2018-12-11T09:27:01.953Z,11.33
2018-12-11T09:29:30.927Z,11.25
2018-12-11T09:31:59.953Z,11.23
2018-12-11T09:34:28.916Z,11.46
2018-12-11T09:36:57.968Z,11.86
2018-12-11T09:39:27.032Z,12.22
2018-12-11T09:41:55.878Z,12.47
2018-12-11T09:44:24.962Z,12.57
2018-12-11T09:46:53.953Z,12.63
2018-12-11T09:49:22.869Z,12.95
2018-12-11T09:51:51.849Z,13.17
2018-12-11T09:54:21.050Z,13.43
2018-12-11T09:56:50.049Z,13.31
2018-12-11T09:59:23.364Z,12.89
2018-12-11T10:01:49.896Z,12.84
2018-12-11T10:04:18.648Z,12.76
2018-12-11T10:06:47.639Z,12.76
2018-12-11T10:09:16.535Z,12.99
2018-12-11T10:11:45.738Z,13.56
2018-12-11T10:14:14.532Z,13.83
2018-12-11T10:16:43.301Z,14.03
2018-12-11T10:19:12.504Z,14.37
2018-12-11T10:21:41.590Z,14.75
2018-12-11T10:24:10.768Z,15.15
2018-12-11T10:26:39.554Z,15.61
2018-12-11T10:29:08.648Z,15.98
2018-12-11T10:31:37.727Z,15.85
2018-12-11T10:34:06.458Z,16.15
2018-12-11T10:36:35.344Z,16.73
2018-12-11T10:39:05.988Z,17.21
2018-12-11T10:41:34.966Z,17.13
2018-12-11T10:44:03.878Z,17.27
2018-12-11T10:46:33.908Z,16.85
2018-12-11T10:49:03.046Z,17.23
2018-12-11T10:51:32.213Z,16.75
2018-12-11T10:54:01.359Z,16.42
2018-12-11T10:56:30.636Z,16.38
2018-12-11T10:58:59.756Z,15.67
2018-12-11T11:01:30.704Z,16.63
2018-12-11T11:03:59.662Z,18.33
2018-12-11T11:06:28.573Z,19.57
2018-12-11T11:08:57.712Z,20.38
2018-12-11T11:11:26.551Z,21.67
2018-12-11T11:13:55.274Z,21.86
2018-12-11T11:16:24.642Z,21.68
2018-12-11T11:18:54.107Z,22.01
2018-12-11T11:21:23.010Z,22.44
2018-12-11T11:23:52.013Z,21.76
2018-12-11T11:26:20.963Z,21.27
2018-12-11T11:28:50.012Z,20.67
2018-12-11T11:31:18.780Z,21.21
2018-12-11T11:33:47.748Z,22.16
2018-12-11T11:36:16.837Z,23.27
2018-12-11T11:38:45.891Z,24.04
2018-12-11T11:41:14.915Z,24.58
2018-12-11T11:43:43.654Z,24.67
2018-12-11T11:46:12.570Z,25.19
2018-12-11T11:48:41.452Z,24.15
2018-12-11T11:51:10.560Z,21.74
2018-12-11T11:53:39.636Z,20.79
2018-12-11T11:56:08.763Z,21.23
2018-12-11T11:58:37.922Z,21.26
2018-12-11T12:01:06.872Z,22.02
2018-12-11T12:03:35.779Z,21.66
2018-12-11T12:06:04.784Z,20.05
2018-12-11T12:08:33.563Z,20.36
2018-12-11T12:11:02.365Z,19.06
2018-12-11T12:13:31.475Z,17.18
2018-12-11T12:16:00.216Z,16.71
2018-12-11T12:18:29.136Z,17.70
2018-12-11T12:20:58.484Z,18.90
2018-12-11T12:23:27.472Z,19.74
2018-12-11T12:25:56.448Z,19.92
2018-12-11T12:28:25.324Z,18.28
2018-12-11T12:30:56.152Z,17.12
2018-12-11T12:33:25.241Z,17.32
2018-12-11T12:35:54.280Z,17.96
2018-12-11T12:38:22.998Z,17.43
2018-12-11T12:40:52.067Z,16.48
2018-12-11T12:43:20.993Z,15.81
2018-12-11T12:45:50.143Z,14.72
2018-12-11T12:48:18.967Z,14.05
2018-12-11T12:50:47.868Z,13.74
2018-12-11T12:53:16.628Z,13.54
2018-12-11T12:55:45.687Z,14.15
2018-12-11T12:58:14.652Z,14.79
2018-12-11T13:00:43.682Z,14.87
2018-12-11T13:03:12.407Z,15.10
2018-12-11T13:05:41.365Z,14.68
2018-12-11T13:08:10.216Z,13.60
2018-12-11T13:10:38.968Z,13.08
2018-12-11T13:13:09.340Z,12.52
2018-12-11T13:15:38.739Z,12.12
2018-12-11T13:18:07.749Z,11.71
2018-12-11T13:20:36.606Z,11.12
2018-12-11T13:23:05.540Z,10.62
2018-12-11T13:25:34.572Z,10.15
2018-12-11T13:28:03.275Z,9.79
2018-12-11T13:30:31.979Z,9.61
2018-12-11T13:33:00.898Z,9.51
2018-12-11T13:35:29.800Z,9.30
2018-12-11T13:37:58.853Z,9.22
2018-12-11T13:40:28.107Z,9.08
2018-12-11T13:42:57.428Z,8.93
2018-12-11T13:45:26.276Z,8.70
2018-12-11T13:47:55.324Z,8.32
2018-12-11T13:50:24.438Z,7.91
2018-12-11T13:52:53.552Z,7.72
2018-12-11T13:55:22.668Z,7.60
2018-12-11T13:57:51.597Z,7.47
2018-12-11T14:00:20.564Z,7.22
2018-12-11T14:02:49.456Z,7.15
2018-12-11T14:05:18.744Z,7.00
2018-12-11T14:07:47.776Z,6.86
2018-12-11T14:10:16.823Z,6.68
2018-12-11T14:13:00.417Z,6.55
2018-12-11T14:15:29.298Z,6.45
2018-12-11T14:17:58.163Z,6.33
2018-12-11T14:20:26.998Z,6.12
2018-12-11T14:22:56.066Z,6.09
2018-12-11T14:25:24.895Z,6.00
2018-12-11T14:27:53.983Z,5.88
2018-12-11T14:30:23.112Z,5.72
2018-12-11T14:32:51.994Z,5.66
2018-12-11T14:35:21.102Z,5.68
2018-12-11T14:37:50.148Z,5.61
2018-12-11T14:40:19.183Z,5.57
2018-12-11T14:42:48.205Z,5.55
2018-12-11T14:45:16.883Z,5.53
2018-12-11T14:47:45.818Z,5.57
2018-12-11T14:50:14.866Z,5.59
2018-12-11T14:52:44.102Z,5.72
2018-12-11T14:55:13.166Z,5.68
2018-12-11T14:57:42.201Z,5.63
2018-12-11T15:00:11.628Z,5.61
2018-12-11T15:02:40.960Z,5.63
2018-12-11T15:05:10.499Z,5.53
2018-12-11T15:07:39.766Z,5.38
2018-12-11T15:10:10.820Z,5.36
2018-12-11T15:12:39.721Z,5.36
2018-12-11T15:15:10.396Z,5.35
2018-12-11T15:17:39.419Z,5.31
2018-12-11T15:20:09.345Z,5.29
2018-12-11T15:22:38.329Z,5.34
2018-12-11T15:25:07.457Z,5.26
2018-12-11T15:27:36.503Z,5.22
2018-12-11T15:30:06.014Z,5.28
2018-12-11T15:32:34.774Z,5.31
2018-12-11T15:35:04.232Z,5.25
2018-12-11T15:37:33.139Z,5.28
2018-12-11T15:40:01.798Z,5.24
2018-12-11T15:42:30.760Z,5.33
2018-12-11T15:44:59.812Z,5.29
2018-12-11T15:47:28.943Z,5.20
2018-12-11T15:49:57.952Z,5.18
2018-12-11T15:52:26.710Z,5.11
2018-12-11T15:54:55.660Z,5.11
2018-12-11T15:57:24.717Z,5.09
2018-12-11T15:59:53.655Z,5.04
2018-12-11T16:02:22.583Z,5.08
2018-12-11T16:04:51.490Z,5.04
2018-12-11T16:07:20.367Z,5.00
2018-12-11T16:09:49.399Z,4.98
2018-12-11T16:12:18.407Z,4.98
2018-12-11T16:14:48.187Z,4.93
2018-12-11T16:17:17.078Z,5.00
2018-12-11T16:19:46.175Z,4.98
2018-12-11T16:22:15.299Z,4.90
2018-12-11T16:24:44.197Z,4.81
2018-12-11T16:27:13.372Z,4.74
2018-12-11T16:29:42.304Z,4.68
2018-12-11T16:32:11.339Z,4.66
2018-12-11T16:34:40.314Z,4.66
2018-12-11T16:37:10.280Z,4.69
2018-12-11T16:39:39.457Z,4.69
2018-12-11T16:42:08.577Z,4.79
2018-12-11T16:44:37.628Z,4.80
2018-12-11T16:47:06.827Z,4.90
2018-12-11T16:49:35.916Z,4.93
2018-12-11T16:52:04.932Z,4.91
2018-12-11T16:54:34.164Z,4.86
2018-12-11T16:57:03.248Z,4.83
2018-12-11T16:59:33.735Z,4.85
2018-12-11T17:02:02.646Z,4.85
2018-12-11T17:04:31.659Z,4.85
2018-12-11T17:07:00.624Z,4.92
2018-12-11T17:09:29.772Z,4.94
2018-12-11T17:11:58.855Z,5.03
2018-12-11T17:14:28.378Z,5.10
2018-12-11T17:16:57.293Z,5.05
2018-12-11T17:19:26.103Z,4.98
2018-12-11T17:21:55.209Z,4.83
2018-12-11T17:24:24.271Z,4.75
2018-12-11T17:26:53.306Z,4.64
2018-12-11T17:29:24.411Z,4.51
2018-12-11T17:31:53.810Z,4.51
2018-12-11T17:34:22.836Z,4.37
2018-12-11T17:36:52.059Z,4.39
2018-12-11T17:39:21.298Z,4.32
2018-12-11T17:41:50.266Z,4.20
2018-12-11T17:44:19.290Z,4.24
2018-12-11T17:46:48.440Z,4.21
2018-12-11T17:49:17.512Z,4.26
2018-12-11T17:51:46.634Z,4.25
2018-12-11T17:54:15.704Z,4.30
2018-12-11T17:56:44.861Z,4.23
2018-12-11T17:59:14.152Z,4.21
2018-12-11T18:01:44.642Z,4.11
2018-12-11T18:04:14.555Z,4.10
2018-12-11T18:06:44.394Z,3.86
2018-12-11T18:09:14.445Z,3.85
2018-12-11T18:11:43.846Z,3.80
2018-12-11T18:14:12.928Z,3.77
2018-12-11T18:16:41.987Z,3.92
2018-12-11T18:19:11.160Z,3.99
2018-12-11T18:21:40.772Z,4.01
2018-12-11T18:24:09.578Z,3.88
2018-12-11T18:26:38.609Z,3.84
2018-12-11T18:29:07.715Z,3.88
2018-12-11T18:31:36.995Z,3.89
2018-12-11T18:34:10.937Z,3.75
2018-12-11T18:36:37.747Z,3.70
2018-12-11T18:39:08.759Z,3.77
2018-12-11T18:41:38.156Z,3.79
2018-12-11T18:44:07.115Z,3.85
2018-12-11T18:46:35.922Z,3.96
2018-12-11T18:49:05.198Z,4.05
2018-12-11T18:51:35.401Z,4.02
2018-12-11T18:54:05.502Z,4.12
2018-12-11T18:56:34.232Z,4.17
2018-12-11T18:59:03.440Z,4.19
2018-12-11T19:01:32.649Z,4.20
2018-12-11T19:04:01.806Z,4.20
2018-12-11T19:06:31.594Z,4.16
2018-12-11T19:09:05.699Z,4.13
2018-12-11T19:11:31.624Z,4.25
2018-12-11T19:14:00.545Z,4.19
2018-12-11T19:16:29.587Z,4.15
2018-12-11T19:18:58.598Z,4.19
2018-12-11T19:21:27.770Z,4.12
2018-12-11T19:24:19.915Z,4.22
2018-12-11T19:26:49.129Z,4.18
2018-12-11T19:29:18.190Z,4.14
2018-12-11T19:31:46.993Z,4.11
2018-12-11T19:34:16.253Z,4.12
2018-12-11T19:36:45.283Z,4.14
2018-12-11T19:39:14.331Z,4.08
2018-12-11T19:41:43.435Z,4.05
2018-12-11T19:44:12.328Z,4.04
2018-12-11T19:46:42.027Z,4.03
2018-12-11T19:49:10.979Z,4.00
2018-12-11T19:51:39.660Z,3.93
2018-12-11T19:54:08.605Z,4.02
2018-12-11T19:56:38.071Z,3.96
2018-12-11T19:59:06.980Z,4.02
2018-12-11T20:01:35.966Z,3.93
2018-12-11T20:04:05.595Z,3.89
2018-12-11T20:06:34.814Z,3.86
2018-12-11T20:09:07.241Z,3.91
2018-12-11T20:11:36.222Z,3.97
2018-12-11T20:14:05.351Z,3.92
2018-12-11T20:16:34.384Z,3.86
2018-12-11T20:19:03.593Z,3.78
2018-12-11T20:21:32.521Z,3.74
2018-12-11T20:24:04.888Z,3.73
2018-12-11T20:26:36.522Z,3.63
2018-12-11T20:29:03.500Z,3.59
2018-12-11T20:31:32.528Z,3.53
2018-12-11T20:34:01.541Z,3.50
2018-12-11T20:36:30.305Z,3.46
2018-12-11T20:39:00.288Z,3.43
2018-12-11T20:41:29.009Z,3.45
2018-12-11T20:43:57.866Z,3.44
2018-12-11T20:46:27.049Z,3.40
2018-12-11T20:48:56.112Z,3.37
2018-12-11T20:51:25.170Z,3.30
2018-12-11T20:53:54.247Z,3.39
2018-12-11T20:56:23.125Z,3.39
2018-12-11T20:58:52.068Z,3.35
2018-12-11T21:01:21.219Z,3.28
2018-12-11T21:03:50.039Z,3.24
2018-12-11T21:06:19.262Z,3.30
2018-12-11T21:08:48.269Z,3.31
2018-12-11T21:11:17.154Z,3.36
2018-12-11T21:13:46.237Z,3.35
2018-12-11T21:16:15.167Z,3.34
2018-12-11T21:18:44.571Z,3.35
2018-12-11T21:21:13.795Z,3.36
2018-12-11T21:23:42.634Z,3.31
2018-12-11T21:26:11.822Z,3.31
2018-12-11T21:28:40.853Z,3.37
2018-12-11T21:31:09.883Z,3.31
2018-12-11T21:33:39.038Z,3.30
2018-12-11T21:36:07.992Z,3.29
2018-12-11T21:38:36.889Z,3.35
2018-12-11T21:41:05.653Z,3.24
2018-12-11T21:43:34.440Z,3.14
2018-12-11T21:46:03.357Z,3.11
2018-12-11T21:48:32.411Z,3.08
2018-12-11T21:51:01.585Z,3.04
2018-12-11T21:53:30.537Z,3.05
2018-12-11T21:55:59.471Z,3.02
2018-12-11T21:58:28.560Z,2.97
2018-12-11T22:00:57.404Z,2.96
2018-12-11T22:03:26.906Z,2.94
2018-12-11T22:05:55.920Z,2.89
2018-12-11T22:08:25.189Z,2.94
2018-12-11T22:10:54.229Z,2.96
2018-12-11T22:13:23.282Z,2.97
2018-12-11T22:15:52.275Z,2.94
2018-12-11T22:18:21.246Z,2.98
2018-12-11T22:20:50.423Z,2.92
2018-12-11T22:23:19.497Z,2.97
2018-12-11T22:25:48.670Z,2.99
2018-12-11T22:28:17.807Z,2.95
2018-12-11T22:30:46.896Z,2.89
2018-12-11T22:33:15.930Z,2.92
2018-12-11T22:35:44.767Z,2.87
2018-12-11T22:38:13.861Z,2.83
2018-12-11T22:40:42.879Z,2.84
2018-12-11T22:43:11.790Z,2.80
2018-12-11T22:45:40.683Z,2.82
2018-12-11T22:48:09.648Z,2.87
2018-12-11T22:50:38.468Z,2.91
2018-12-11T22:53:07.235Z,2.84
2018-12-11T22:55:36.328Z,2.89
2018-12-11T22:58:05.496Z,2.93
2018-12-11T23:00:34.544Z,2.90
2018-12-11T23:03:03.688Z,2.90
2018-12-11T23:05:32.625Z,2.91
2018-12-11T23:08:01.565Z,2.94
2018-12-11T23:10:30.528Z,3.00
2018-12-11T23:12:59.291Z,2.99
2018-12-11T23:15:28.331Z,3.07
2018-12-11T23:17:57.478Z,3.08
2018-12-11T23:20:26.529Z,3.11
2018-12-11T23:22:55.216Z,3.17
2018-12-11T23:25:24.349Z,3.15
2018-12-11T23:27:53.109Z,3.26
2018-12-11T23:30:22.284Z,3.32
2018-12-11T23:32:51.344Z,3.31
2018-12-11T23:35:20.714Z,3.30
2018-12-11T23:37:49.633Z,3.34
2018-12-11T23:40:18.691Z,3.32
2018-12-11T23:42:47.764Z,3.32
2018-12-11T23:45:16.813Z,3.29
2018-12-11T23:47:45.845Z,3.27
2018-12-11T23:50:14.883Z,3.21
2018-12-11T23:52:43.953Z,3.18
2018-12-11T23:55:12.666Z,3.20
2018-12-11T23:57:41.368Z,3.21
